Time;durP1;ratioP1;P1;durP2;ratioP2;P2;SDS_P1;SDS_P2;PMS_P1;PMS_P2;Temp;Humidity;BMP_temperature;BMP_pressure;BME280_temperature;BME280_humidity;BME280_pressure;Samples;Min_cycle;Max_cycle;Signal;HPM_P1;HPM_P2
2023/10/07 00:01:34;;;;;;;12.33;6.80;;;9.00;99.90;;;;;;4193619;28;20174;-58
2023/10/07 00:03:37;;;;;;;8.83;4.77;;;9.00;99.90;;;;;;4194320;28;20128;-60
2023/10/07 00:05:42;;;;;;;9.63;5.83;;;9.00;99.90;;;;;;4193312;28;20082;-57
2023/10/07 00:07:46;;;;;;;10.07;5.30;;;9.00;99.90;;;;;;4194145;28;20045;-58
2023/10/07 00:09:50;;;;;;;11.83;5.53;;;9.00;99.90;;;;;;4193152;28;20028;-58
2023/10/07 00:11:51;;;;;;;11.23;4.93;;;9.00;99.90;;;;;;4194340;28;20048;-60
2023/10/07 00:13:54;;;;;;;7.33;4.63;;;8.90;99.90;;;;;;4191093;28;20040;-56
2023/10/07 00:15:56;;;;;;;9.77;4.70;;;9.00;99.90;;;;;;4194184;28;20086;-59
2023/10/07 00:18:05;;;;;;;7.80;4.83;;;9.00;99.90;;;;;;4193167;28;20078;-56
2023/10/07 00:20:09;;;;;;;8.80;5.13;;;9.00;99.90;;;;;;4194300;28;20088;-58
2023/10/07 00:22:13;;;;;;;10.57;5.53;;;9.00;99.90;;;;;;4192527;28;20092;-53
2023/10/07 00:24:17;;;;;;;13.13;6.57;;;8.90;99.90;;;;;;4193461;28;20554;-57
2023/10/07 00:26:18;;;;;;;12.83;6.40;;;8.80;99.90;;;;;;4193684;28;20416;-57
2023/10/07 00:30:27;;;;;;;13.63;8.20;;;8.60;99.90;;;;;;4193031;28;20086;-57
2023/10/07 00:32:30;;;;;;;16.60;7.70;;;8.60;99.90;;;;;;4193811;28;20038;-54
2023/10/07 00:34:31;;;;;;;14.63;8.00;;;8.60;99.90;;;;;;4192715;28;20082;-60
2023/10/07 00:38:41;;;;;;;12.67;7.33;;;8.50;99.90;;;;;;4193119;28;20082;-57
2023/10/07 00:40:52;;;;;;;20.03;8.97;;;8.50;99.90;;;;;;4193734;28;20447;-57
2023/10/07 00:42:53;;;;;;;17.50;7.40;;;8.50;99.90;;;;;;4193251;28;20126;-58
2023/10/07 00:44:56;;;;;;;15.70;7.53;;;8.40;99.90;;;;;;4193619;28;20655;-55
2023/10/07 00:49:14;;;;;;;14.37;7.87;;;8.20;99.90;;;;;;4193290;28;20241;-61
2023/10/07 00:51:25;;;;;;;15.77;7.27;;;8.20;99.90;;;;;;4193075;28;20751;-56
2023/10/07 00:53:30;;;;;;;13.87;6.30;;;8.20;99.90;;;;;;4190876;28;20052;-59
2023/10/07 00:55:35;;;;;;;9.80;5.83;;;8.10;99.90;;;;;;4192565;28;20089;-56
2023/10/07 00:57:37;;;;;;;10.90;6.33;;;8.20;99.90;;;;;;4194402;28;20024;-56
2023/10/07 00:59:40;;;;;;;10.97;6.20;;;8.20;99.90;;;;;;4197157;28;20109;-59
2023/10/07 01:01:46;;;;;;;9.67;6.10;;;8.20;99.90;;;;;;4195802;28;20470;-59
2023/10/07 01:03:48;;;;;;;10.77;5.80;;;8.10;99.90;;;;;;4197656;28;20110;-57
2023/10/07 01:08:00;;;;;;;12.67;5.73;;;8.10;99.90;;;;;;4197158;28;20044;-59
2023/10/07 01:12:12;;;;;;;9.88;5.40;;;8.10;99.90;;;;;;4196643;28;20438;-58
2023/10/07 01:14:14;;;;;;;10.33;5.27;;;8.10;99.90;;;;;;4195947;28;20040;-60
2023/10/07 01:16:26;;;;;;;11.97;6.20;;;8.00;99.90;;;;;;4197388;28;20603;-57
2023/10/07 01:18:27;;;;;;;9.03;4.73;;;8.00;99.90;;;;;;4196017;28;20410;-56
2023/10/07 01:20:35;;;;;;;8.67;4.40;;;8.00;99.90;;;;;;4197486;28;20393;-59
2023/10/07 01:22:36;;;;;;;9.33;4.30;;;8.00;99.90;;;;;;4196212;28;20044;-60
2023/10/07 01:26:43;;;;;;;11.10;4.57;;;8.00;99.90;;;;;;4195623;28;20477;-60
2023/10/07 01:28:45;;;;;;;10.33;4.57;;;8.00;99.90;;;;;;4196162;28;20052;-59
2023/10/07 01:31:08;;;;;;;7.43;4.20;;;8.00;99.90;;;;;;4195985;28;20086;-58
2023/10/07 01:33:24;;;;;;;10.40;4.43;;;8.00;99.90;;;;;;4196630;28;20074;-59
2023/10/07 01:35:26;;;;;;;10.67;3.93;;;8.00;99.90;;;;;;4196086;28;20032;-59
2023/10/07 01:37:40;;;;;;;7.47;4.37;;;7.90;99.90;;;;;;4196823;28;20079;-59
2023/10/07 01:39:45;;;;;;;9.13;4.67;;;7.90;99.90;;;;;;4195432;28;20386;-60
2023/10/07 01:41:46;;;;;;;9.93;4.33;;;7.90;99.90;;;;;;4196907;28;20094;-59
2023/10/07 01:43:56;;;;;;;6.90;4.50;;;7.80;99.90;;;;;;4195456;28;20032;-58
2023/10/07 01:46:10;;;;;;;5.85;4.32;;;7.90;99.90;;;;;;4196638;28;20025;-58
2023/10/07 01:48:11;;;;;;;7.83;3.90;;;7.80;99.90;;;;;;4195519;28;20033;-60
2023/10/07 01:50:12;;;;;;;8.80;4.43;;;7.90;99.90;;;;;;4196574;28;20036;-59
2023/10/07 01:52:14;;;;;;;10.83;4.80;;;7.90;99.90;;;;;;4195494;28;20048;-59
2023/10/07 01:54:15;;;;;;;8.50;4.90;;;7.90;99.90;;;;;;4196275;28;20029;-61
2023/10/07 01:56:17;;;;;;;8.23;4.07;;;7.90;99.90;;;;;;4195492;28;20416;-59
2023/10/07 01:58:19;;;;;;;8.60;4.03;;;7.90;99.90;;;;;;4194538;28;20062;-58
2023/10/07 02:00:38;;;;;;;8.17;4.10;;;7.90;99.90;;;;;;4194883;28;20036;-59
2023/10/07 02:02:49;;;;;;;11.10;4.20;;;7.90;99.90;;;;;;4195032;28;20181;-60
2023/10/07 02:04:55;;;;;;;10.27;4.85;;;7.80;99.90;;;;;;4195516;28;20538;-61
2023/10/07 02:06:56;;;;;;;6.10;3.90;;;7.80;99.90;;;;;;4195591;28;20044;-61
2023/10/07 02:08:57;;;;;;;7.43;3.93;;;7.70;99.90;;;;;;4195165;28;20086;-60
2023/10/07 02:10:58;;;;;;;6.53;4.57;;;7.70;99.90;;;;;;4194650;28;20505;-60
2023/10/07 02:12:59;;;;;;;7.77;4.20;;;7.70;99.90;;;;;;4196013;28;20036;-58
2023/10/07 02:15:10;;;;;;;7.57;3.70;;;7.70;99.90;;;;;;4195245;28;20040;-56
2023/10/07 02:17:14;;;;;;;7.20;3.58;;;7.70;99.90;;;;;;4196357;28;20105;-59
2023/10/07 02:19:26;;;;;;;10.30;4.60;;;7.70;99.90;;;;;;4195085;28;20032;-57
2023/10/07 02:21:28;;;;;;;10.10;4.10;;;7.70;99.90;;;;;;4196116;28;20028;-60
2023/10/07 02:23:40;;;;;;;8.30;4.30;;;7.70;99.90;;;;;;4195136;28;20041;-60
2023/10/07 02:25:41;;;;;;;7.97;4.30;;;7.70;99.90;;;;;;4196453;28;20036;-59
2023/10/07 02:27:48;;;;;;;5.80;3.97;;;7.60;99.90;;;;;;4194877;28;20048;-59
2023/10/07 02:29:56;;;;;;;7.80;4.30;;;7.70;99.90;;;;;;4196181;28;20133;-57
2023/10/07 02:32:11;;;;;;;7.43;4.27;;;7.60;99.90;;;;;;4194023;28;20032;-60
2023/10/07 02:34:28;;;;;;;10.80;4.53;;;7.60;99.90;;;;;;4196129;28;20098;-59
2023/10/07 02:36:31;;;;;;;9.57;4.33;;;7.60;99.90;;;;;;4181289;28;20048;-59
2023/10/07 02:38:37;;;;;;;11.77;4.77;;;7.60;99.90;;;;;;4179711;28;20045;-59
2023/10/07 02:40:52;;;;;;;7.90;4.53;;;7.60;99.90;;;;;;4177981;28;20070;-60
2023/10/07 02:42:54;;;;;;;11.57;4.40;;;7.50;99.90;;;;;;4180986;28;20033;-58
2023/10/07 02:47:20;;;;;;;11.37;4.87;;;7.50;99.90;;;;;;4196081;28;20085;-60
2023/10/07 02:49:25;;;;;;;7.57;3.87;;;7.50;99.90;;;;;;4194756;28;20044;-58
2023/10/07 02:51:27;;;;;;;8.80;4.10;;;7.50;99.90;;;;;;4195748;28;20477;-59
2023/10/07 02:53:28;;;;;;;11.67;4.63;;;7.50;99.90;;;;;;4194411;28;20077;-59
2023/10/07 02:55:38;;;;;;;8.27;4.43;;;7.40;99.90;;;;;;4195896;28;20514;-60
2023/10/07 02:57:39;;;;;;;8.35;4.43;;;7.40;99.90;;;;;;4194496;28;20048;-60
2023/10/07 02:59:50;;;;;;;6.17;4.07;;;7.40;99.90;;;;;;4195413;28;20090;-57
2023/10/07 03:02:12;;;;;;;11.83;4.80;;;7.40;99.90;;;;;;4193697;28;20078;-59
2023/10/07 03:04:12;;;;;;;8.40;4.50;;;7.40;99.90;;;;;;4193638;28;20362;-60
2023/10/07 03:06:17;;;;;;;9.17;4.40;;;7.40;99.90;;;;;;4193035;28;20040;-60
2023/10/07 03:08:21;;;;;;;7.40;3.40;;;7.30;99.90;;;;;;4195228;28;20048;-56
2023/10/07 03:12:36;;;;;;;6.03;4.13;;;7.30;99.90;;;;;;4195431;28;20044;-58
2023/10/07 03:14:38;;;;;;;8.30;3.77;;;7.20;99.90;;;;;;4194159;28;20105;-59
2023/10/07 03:16:48;;;;;;;8.27;4.63;;;7.10;99.90;;;;;;4195199;28;20484;-59
2023/10/07 03:21:14;;;;;;;8.47;4.80;;;6.90;99.90;;;;;;4194001;28;20140;-59
2023/10/07 03:23:15;;;;;;;13.07;6.33;;;6.70;99.90;;;;;;4193908;28;20029;-61
2023/10/07 03:25:18;;;;;;;16.33;7.07;;;6.70;99.90;;;;;;4195171;28;20094;-58
2023/10/07 03:27:25;;;;;;;14.57;6.53;;;6.60;99.90;;;;;;4194051;28;20086;-58
2023/10/07 03:29:30;;;;;;;14.20;5.80;;;6.60;99.90;;;;;;4194480;28;20101;-58
2023/10/07 03:33:51;;;;;;;9.67;4.80;;;6.60;99.90;;;;;;4194017;28;20097;-60
2023/10/07 03:38:02;;;;;;;10.77;5.57;;;6.50;99.90;;;;;;4194234;28;20082;-60
2023/10/07 03:40:25;;;;;;;12.80;6.47;;;6.40;99.90;;;;;;4193749;28;20066;-57
2023/10/07 03:42:25;;;;;;;13.77;7.27;;;6.40;99.90;;;;;;4193939;28;20109;-60
2023/10/07 03:44:27;;;;;;;9.27;6.40;;;6.30;99.90;;;;;;4193961;28;20102;-57
2023/10/07 03:46:29;;;;;;;14.60;7.73;;;6.20;99.90;;;;;;4194455;28;20086;-56
2023/10/07 03:48:33;;;;;;;17.03;8.37;;;6.10;99.90;;;;;;4194308;28;20054;-59
2023/10/07 03:50:37;;;;;;;14.57;6.90;;;6.00;99.90;;;;;;4193667;28;20070;-59
2023/10/07 03:52:38;;;;;;;15.57;7.63;;;5.90;99.90;;;;;;4194778;28;20029;-59
2023/10/07 03:54:40;;;;;;;13.13;7.63;;;5.80;99.90;;;;;;4193738;28;20021;-59
2023/10/07 03:56:49;;;;;;;12.17;6.67;;;5.70;99.90;;;;;;4194508;28;20029;-58
2023/10/07 03:58:50;;;;;;;13.13;8.07;;;5.60;99.90;;;;;;4193654;28;20078;-61
2023/10/07 04:00:52;;;;;;;13.47;7.97;;;5.60;99.90;;;;;;4194156;28;20036;-58
2023/10/07 04:02:54;;;;;;;13.23;8.27;;;5.60;99.90;;;;;;4192621;28;20024;-59
2023/10/07 04:04:59;;;;;;;15.40;8.70;;;5.50;99.90;;;;;;4193206;28;20025;-59
2023/10/07 04:07:01;;;;;;;15.53;8.03;;;5.50;99.90;;;;;;4192237;28;20025;-58
2023/10/07 04:09:11;;;;;;;12.60;7.03;;;5.40;99.90;;;;;;4192623;28;20078;-58
2023/10/07 04:11:19;;;;;;;14.27;7.20;;;5.40;99.90;;;;;;4189822;28;20074;-60
2023/10/07 04:13:24;;;;;;;16.10;8.60;;;5.30;99.90;;;;;;4194354;28;20121;-55
2023/10/07 04:15:29;;;;;;;13.93;7.83;;;5.20;99.90;;;;;;4192888;28;20479;-60
2023/10/07 04:17:31;;;;;;;16.67;8.00;;;5.20;99.90;;;;;;4193707;28;20078;-60
2023/10/07 04:19:38;;;;;;;13.40;9.17;;;5.20;99.90;;;;;;4193094;28;20097;-61
2023/10/07 04:21:39;;;;;;;18.63;9.83;;;5.10;99.90;;;;;;4192940;28;20066;-58
2023/10/07 04:23:44;;;;;;;21.47;9.03;;;5.10;99.90;;;;;;4191672;28;20086;-57
2023/10/07 04:25:47;;;;;;;17.00;9.50;;;5.10;99.90;;;;;;4194169;28;20028;-58
2023/10/07 04:27:53;;;;;;;20.23;10.10;;;5.10;99.90;;;;;;4191826;28;20021;-59
2023/10/07 04:29:54;;;;;;;18.43;9.83;;;5.10;99.90;;;;;;4193684;28;20036;-61
2023/10/07 04:31:57;;;;;;;19.30;10.00;;;5.10;99.90;;;;;;4193541;28;20104;-58
2023/10/07 04:34:02;;;;;;;22.83;12.03;;;5.20;99.90;;;;;;4193268;28;20036;-60
2023/10/07 04:36:04;;;;;;;17.80;11.77;;;5.20;99.90;;;;;;4193920;28;20020;-61
2023/10/07 04:42:59;;;;;;;17.33;9.07;;;5.20;99.90;;;;;;4192555;28;20032;-58
2023/10/07 04:45:22;;;;;;;26.73;10.00;;;5.20;99.90;;;;;;4193069;28;20029;-58
2023/10/07 04:49:37;;;;;;;15.70;8.30;;;5.40;99.90;;;;;;4192940;28;20089;-59
2023/10/07 04:53:44;;;;;;;19.07;9.03;;;5.80;99.90;;;;;;4192471;28;20535;-60
2023/10/07 04:55:45;;;;;;;17.30;9.03;;;5.90;99.90;;;;;;4193643;28;20044;-61
2023/10/07 04:59:56;;;;;;;18.90;8.93;;;6.10;99.90;;;;;;4192416;28;20054;-60
2023/10/07 05:02:01;;;;;;;13.40;7.97;;;6.20;99.90;;;;;;4191097;28;20037;-58
2023/10/07 05:04:15;;;;;;;17.27;9.37;;;6.50;99.90;;;;;;4191592;28;20032;-57
2023/10/07 05:06:16;;;;;;;18.43;8.47;;;6.80;99.90;;;;;;4188537;28;20507;-60
2023/10/07 05:08:17;;;;;;;16.70;8.00;;;7.10;99.90;;;;;;4190352;28;20106;-60
2023/10/07 05:10:20;;;;;;;14.17;9.00;;;7.40;99.90;;;;;;4192484;28;20444;-56
2023/10/07 05:12:22;;;;;;;13.80;8.77;;;7.60;99.90;;;;;;4192366;28;20056;-57
2023/10/07 05:14:24;;;;;;;16.77;8.43;;;7.80;99.90;;;;;;4193636;28;20147;-59
2023/10/07 05:16:25;;;;;;;16.53;8.67;;;8.10;99.90;;;;;;4192647;28;20378;-59
2023/10/07 05:18:26;;;;;;;18.37;8.47;;;8.40;99.90;;;;;;4192999;28;20049;-58
2023/10/07 05:20:31;;;;;;;18.50;8.77;;;8.70;99.90;;;;;;4192245;28;20040;-59
2023/10/07 05:22:32;;;;;;;18.27;9.77;;;9.00;99.90;;;;;;4193384;28;20428;-58
2023/10/07 05:24:38;;;;;;;19.97;9.33;;;9.10;99.90;;;;;;4192241;28;20358;-58
2023/10/07 05:26:40;;;;;;;18.80;10.03;;;9.40;99.90;;;;;;4193680;28;20090;-61
2023/10/07 05:28:44;;;;;;;20.70;11.60;;;9.40;99.90;;;;;;4191870;28;20110;-60
2023/10/07 05:30:54;;;;;;;20.07;12.53;;;9.40;99.90;;;;;;4192049;28;20025;-57
2023/10/07 05:32:55;;;;;;;19.80;11.33;;;9.40;99.90;;;;;;4191734;28;20032;-59
2023/10/07 05:34:57;;;;;;;21.40;12.37;;;9.30;99.90;;;;;;4192890;28;20060;-58
2023/10/07 05:37:04;;;;;;;18.40;11.87;;;9.30;99.90;;;;;;4192584;28;20094;-58
2023/10/07 05:39:08;;;;;;;16.50;9.93;;;9.30;99.90;;;;;;4192118;28;20432;-59
2023/10/07 05:41:15;;;;;;;25.50;10.67;;;9.20;99.90;;;;;;4192332;28;20422;-59
2023/10/07 05:43:16;;;;;;;27.00;9.10;;;9.30;99.90;;;;;;4193035;28;20435;-60
2023/10/07 05:45:17;;;;;;;20.73;8.70;;;9.30;99.90;;;;;;4195228;28;20036;-59
2023/10/07 05:47:18;;;;;;;18.63;8.90;;;9.40;99.90;;;;;;4194774;28;20293;-60
2023/10/07 05:49:20;;;;;;;16.63;7.87;;;9.40;99.90;;;;;;4195921;28;20037;-59
2023/10/07 05:51:21;;;;;;;16.40;8.17;;;9.40;99.90;;;;;;4189866;28;20205;-57
2023/10/07 05:53:22;;;;;;;27.03;8.07;;;9.50;99.90;;;;;;4195474;28;20033;-60
2023/10/07 05:55:23;;;;;;;11.43;6.83;;;9.60;99.90;;;;;;4195086;28;20060;-57
2023/10/07 05:57:24;;;;;;;13.50;7.67;;;9.70;99.90;;;;;;4195919;28;20098;-58
2023/10/07 05:59:25;;;;;;;15.17;8.07;;;9.50;99.90;;;;;;4194291;28;20048;-60
2023/10/07 06:01:26;;;;;;;24.47;8.17;;;9.40;99.90;;;;;;4195729;28;20036;-58
2023/10/07 06:03:28;;;;;;;15.33;8.13;;;9.40;99.90;;;;;;4194222;28;20041;-56
2023/10/07 06:05:29;;;;;;;15.80;7.73;;;9.40;99.90;;;;;;4194356;28;20102;-57
2023/10/07 06:07:30;;;;;;;17.20;9.17;;;9.20;99.90;;;;;;4194552;28;20040;-56
2023/10/07 06:09:31;;;;;;;14.13;7.67;;;9.10;99.90;;;;;;4194916;28;20021;-60
2023/10/07 06:11:34;;;;;;;25.30;8.77;;;9.20;99.90;;;;;;4193594;28;20130;-59
2023/10/07 06:13:37;;;;;;;18.43;7.50;;;9.20;99.90;;;;;;4193571;28;20402;-59
2023/10/07 06:15:39;;;;;;;14.60;7.83;;;9.20;99.90;;;;;;4194434;28;20101;-59
2023/10/07 06:17:42;;;;;;;15.67;7.87;;;9.20;99.90;;;;;;4193489;28;20082;-60
2023/10/07 06:19:43;;;;;;;17.73;8.40;;;9.30;99.90;;;;;;4195273;28;20074;-60
2023/10/07 06:21:50;;;;;;;15.97;7.80;;;9.60;99.90;;;;;;4193552;28;20048;-58
2023/10/07 06:23:53;;;;;;;14.23;7.50;;;9.90;99.90;;;;;;4195596;28;20090;-59
2023/10/07 06:26:01;;;;;;;15.93;8.17;;;10.20;99.90;;;;;;4194507;28;20036;-59
2023/10/07 06:28:05;;;;;;;13.93;7.20;;;10.60;99.90;;;;;;4195584;28;20094;-61
2023/10/07 06:30:09;;;;;;;12.93;7.87;;;10.70;99.90;;;;;;4194475;28;20025;-60
2023/10/07 06:32:23;;;;;;;18.70;8.03;;;10.80;99.90;;;;;;4196024;28;20113;-60
2023/10/07 06:34:27;;;;;;;15.77;7.63;;;11.20;99.90;;;;;;4194541;28;20050;-64
2023/10/07 06:36:30;;;;;;;15.20;7.17;;;11.60;99.90;;;;;;4194881;28;20488;-58
2023/10/07 06:38:33;;;;;;;13.93;7.33;;;11.90;99.90;;;;;;4194489;28;20403;-57
2023/10/07 06:40:35;;;;;;;15.77;7.30;;;12.40;99.90;;;;;;4195915;28;20472;-62
2023/10/07 06:42:40;;;;;;;14.13;6.87;;;12.80;99.90;;;;;;4194525;28;20093;-56
2023/10/07 06:44:41;;;;;;;11.07;6.30;;;13.20;99.90;;;;;;4195345;28;20423;-58
2023/10/07 06:46:44;;;;;;;10.60;6.40;;;13.80;99.90;;;;;;4194060;28;20037;-58
2023/10/07 06:48:48;;;;;;;12.70;6.93;;;14.10;99.90;;;;;;4194740;28;20025;-59
2023/10/07 06:50:52;;;;;;;12.00;6.67;;;14.30;99.90;;;;;;4193544;28;20041;-59
2023/10/07 06:52:57;;;;;;;11.43;6.63;;;14.60;99.90;;;;;;4194854;28;20058;-58
2023/10/07 06:55:01;;;;;;;14.47;7.50;;;14.60;99.90;;;;;;4193227;28;20053;-61
2023/10/07 06:57:08;;;;;;;15.17;7.00;;;14.40;99.90;;;;;;4192375;28;20350;-58
2023/10/07 06:59:13;;;;;;;13.00;6.57;;;14.10;99.90;;;;;;4194403;28;20025;-53
2023/10/07 07:01:22;;;;;;;13.13;6.50;;;14.20;99.90;;;;;;4194252;28;20086;-58
2023/10/07 07:03:25;;;;;;;13.27;7.83;;;14.10;99.90;;;;;;4193955;28;20048;-56
2023/10/07 07:05:28;;;;;;;13.33;6.77;;;14.40;99.90;;;;;;4194243;28;20404;-60
2023/10/07 07:07:29;;;;;;;11.90;6.87;;;14.50;99.90;;;;;;4194225;28;20032;-59
2023/10/07 07:09:43;;;;;;;16.50;6.47;;;14.30;99.90;;;;;;4194121;28;20044;-55
2023/10/07 07:11:44;;;;;;;10.13;5.63;;;14.60;99.90;;;;;;4194874;28;20044;-59
2023/10/07 07:13:45;;;;;;;11.13;5.90;;;15.00;99.90;;;;;;4193529;28;20505;-58
2023/10/07 07:15:57;;;;;;;8.70;5.63;;;15.30;99.90;;;;;;4194150;28;20036;-54
2023/10/07 07:18:25;;;;;;;16.35;6.28;;;15.40;99.90;;;;;;4191742;28;20296;-56
2023/10/07 07:20:32;;;;;;;12.07;5.80;;;15.70;99.90;;;;;;4191553;28;20516;-55
2023/10/07 07:22:44;;;;;;;12.90;5.57;;;16.20;99.90;;;;;;4192058;28;20041;-60
2023/10/07 07:24:46;;;;;;;11.82;6.13;;;16.50;99.90;;;;;;4193214;28;20025;-59
2023/10/07 07:26:52;;;;;;;10.93;6.30;;;17.10;99.90;;;;;;4192424;28;20075;-61
2023/10/07 07:28:56;;;;;;;9.55;5.45;;;17.00;99.90;;;;;;4194398;28;20052;-63
2023/10/07 07:30:58;;;;;;;10.35;5.60;;;17.10;99.90;;;;;;4192177;28;20028;-59
2023/10/07 07:33:06;;;;;;;11.88;5.30;;;17.30;99.90;;;;;;4192208;28;20048;-60
2023/10/07 07:35:07;;;;;;;14.88;5.25;;;17.50;99.90;;;;;;4192969;28;20137;-58
2023/10/07 07:37:10;;;;;;;11.82;5.80;;;17.40;99.90;;;;;;4191739;28;20037;-56
2023/10/07 07:39:20;;;;;;;10.52;5.78;;;17.60;99.90;;;;;;4194429;28;20098;-55
2023/10/07 07:41:34;;;;;;;8.27;5.68;;;17.90;99.90;;;;;;4194836;28;20400;-60
2023/10/07 07:43:37;;;;;;;14.38;3.95;;;17.70;99.90;;;;;;4193517;28;20071;-60
2023/10/07 07:45:39;;;;;;;8.95;4.72;;;17.60;99.90;;;;;;4194575;28;20052;-58
2023/10/07 07:47:41;;;;;;;7.50;3.63;;;17.80;99.90;;;;;;4192063;28;20166;-58
2023/10/07 07:49:42;;;;;;;10.27;4.47;;;17.80;99.90;;;;;;4195694;28;20427;-60
2023/10/07 07:51:45;;;;;;;14.43;5.90;;;17.60;99.90;;;;;;4193572;28;20114;-60
2023/10/07 07:53:48;;;;;;;9.00;4.72;;;17.20;99.90;;;;;;4194401;28;20056;-59
2023/10/07 07:55:51;;;;;;;9.80;4.13;;;16.90;99.90;;;;;;4194112;28;20514;-59
2023/10/07 07:57:52;;;;;;;6.18;3.65;;;16.40;99.90;;;;;;4194328;28;20020;-60
2023/10/07 07:59:53;;;;;;;7.30;3.92;;;15.90;99.90;;;;;;4193615;28;20061;-60
2023/10/07 08:02:01;;;;;;;8.55;4.45;;;15.80;99.90;;;;;;4193686;28;20098;-57
2023/10/07 08:04:09;;;;;;;8.48;4.45;;;15.50;99.90;;;;;;4193810;28;20041;-58
2023/10/07 08:06:19;;;;;;;10.15;4.43;;;15.40;99.90;;;;;;4193282;28;20319;-57
2023/10/07 08:08:24;;;;;;;10.68;4.45;;;15.40;99.90;;;;;;4193533;28;20498;-55
2023/10/07 08:10:28;;;;;;;12.35;5.53;;;15.40;99.90;;;;;;4193297;28;20469;-59
2023/10/07 08:12:36;;;;;;;11.07;5.53;;;15.20;99.90;;;;;;4193020;28;20052;-60
2023/10/07 08:14:40;;;;;;;11.60;5.68;;;15.20;99.90;;;;;;4192996;28;20094;-60
2023/10/07 08:16:51;;;;;;;10.82;5.40;;;15.20;99.90;;;;;;4193084;28;20048;-57
2023/10/07 08:18:56;;;;;;;9.57;5.85;;;15.40;99.90;;;;;;4191681;28;20044;-60
2023/10/07 08:21:07;;;;;;;11.68;6.55;;;15.80;99.90;;;;;;4192411;28;21151;-59
2023/10/07 08:23:21;;;;;;;10.07;6.35;;;15.80;99.90;;;;;;4192991;28;20502;-60
2023/10/07 08:25:45;;;;;;;10.68;6.40;;;15.70;99.90;;;;;;4192621;28;20048;-58
2023/10/07 08:27:49;;;;;;;13.02;6.53;;;15.80;99.90;;;;;;4191812;28;20138;-57
2023/10/07 08:29:54;;;;;;;17.13;6.75;;;15.80;99.90;;;;;;4192703;28;20158;-56
2023/10/07 08:31:57;;;;;;;14.10;6.63;;;15.80;99.90;;;;;;4193014;28;20032;-58
2023/10/07 08:36:09;;;;;;;13.45;7.28;;;15.80;99.90;;;;;;4193105;28;20079;-57
2023/10/07 08:38:20;;;;;;;10.27;5.45;;;16.10;99.90;;;;;;4193542;28;20447;-57
2023/10/07 08:40:29;;;;;;;11.57;4.80;;;16.60;99.90;;;;;;4192270;28;20586;-55
2023/10/07 08:42:31;;;;;;;8.63;5.50;;;16.70;99.90;;;;;;4193586;28;20024;-58
2023/10/07 08:44:32;;;;;;;14.52;5.90;;;16.70;99.90;;;;;;4192945;28;20040;-58
2023/10/07 08:46:39;;;;;;;10.82;4.95;;;16.70;99.90;;;;;;4192660;28;20025;-59
2023/10/07 08:48:43;;;;;;;10.27;4.93;;;16.70;99.90;;;;;;4193010;28;20464;-56
2023/10/07 08:50:55;;;;;;;8.23;5.20;;;16.60;99.90;;;;;;4193451;28;20032;-60
2023/10/07 08:53:07;;;;;;;10.40;5.13;;;16.40;99.90;;;;;;4192274;28;20186;-56
2023/10/07 08:55:09;;;;;;;11.40;5.88;;;16.40;99.90;;;;;;4193632;28;20044;-59
2023/10/07 08:57:22;;;;;;;11.07;5.78;;;16.50;99.90;;;;;;4192647;28;20416;-59
2023/10/07 08:59:33;;;;;;;8.10;5.43;;;16.50;99.90;;;;;;4193464;28;20121;-58
2023/10/07 09:01:35;;;;;;;9.38;5.05;;;16.50;99.90;;;;;;4192500;28;20411;-59
2023/10/07 09:03:39;;;;;;;9.65;5.22;;;16.70;99.90;;;;;;4193677;28;20089;-57
2023/10/07 09:05:45;;;;;;;8.38;4.75;;;16.80;99.90;;;;;;4192766;28;20157;-55
2023/10/07 09:07:49;;;;;;;15.13;5.43;;;16.90;99.90;;;;;;4193941;28;20086;-56
2023/10/07 09:09:52;;;;;;;8.50;5.00;;;17.00;99.90;;;;;;4192218;28;20481;-58
2023/10/07 09:11:57;;;;;;;9.82;5.78;;;17.00;99.90;;;;;;4193570;28;21093;-58
2023/10/07 09:14:02;;;;;;;9.93;5.60;;;17.10;99.90;;;;;;4192485;28;20481;-57
2023/10/07 09:16:07;;;;;;;9.65;5.20;;;17.10;99.90;;;;;;4193393;28;20546;-59
2023/10/07 09:18:10;;;;;;;12.55;5.22;;;17.20;99.90;;;;;;4192799;28;20459;-59
2023/10/07 09:20:29;;;;;;;9.27;5.32;;;17.30;99.90;;;;;;4196802;28;20114;-59
2023/10/07 09:22:35;;;;;;;11.88;4.88;;;17.40;99.90;;;;;;4195735;28;20461;-60
2023/10/07 09:24:41;;;;;;;8.95;4.40;;;17.60;99.90;;;;;;4196673;28;20033;-57
2023/10/07 09:26:56;;;;;;;12.70;4.50;;;17.70;99.90;;;;;;4194550;28;20362;-58
2023/10/07 09:28:58;;;;;;;16.00;4.18;;;17.80;99.90;;;;;;4180068;28;20462;-52
2023/10/07 09:31:05;;;;;;;7.43;4.05;;;17.90;99.90;;;;;;4188613;28;20103;-59
2023/10/07 09:33:17;;;;;;;9.60;3.53;;;17.90;99.90;;;;;;4196175;28;20025;-59
2023/10/07 09:35:22;;;;;;;8.40;3.90;;;17.90;99.90;;;;;;4194993;28;20036;-58
2023/10/07 09:37:32;;;;;;;5.75;3.40;;;18.10;99.90;;;;;;4195667;28;20079;-59
2023/10/07 09:39:34;;;;;;;6.35;2.67;;;18.10;99.90;;;;;;4192110;28;20501;-58
2023/10/07 09:41:37;;;;;;;6.38;3.05;;;18.30;99.90;;;;;;4194533;28;20138;-58
2023/10/07 09:43:47;;;;;;;5.72;2.65;;;18.40;99.90;;;;;;4195387;28;20110;-59
2023/10/07 09:45:52;;;;;;;6.75;2.60;;;18.60;99.90;;;;;;4195295;28;20139;-59
2023/10/07 09:47:54;;;;;;;6.05;2.85;;;18.60;99.90;;;;;;4194860;28;20032;-59
2023/10/07 09:49:58;;;;;;;2.38;2.00;;;18.80;99.90;;;;;;4194906;28;20094;-58
2023/10/07 09:52:16;;;;;;;5.72;2.70;;;19.00;99.90;;;;;;4195987;28;20070;-56
2023/10/07 09:54:26;;;;;;;4.05;2.00;;;19.30;99.80;;;;;;4196072;28;20029;-61
2023/10/07 09:56:38;;;;;;;;;;;19.50;99.10;;;;;;4196673;28;20077;-59
2023/10/07 09:59:00;;;;;;;8.73;2.00;;;19.60;97.80;;;;;;4196279;28;19908;-60
2023/10/07 10:01:28;;;;;;;3.47;1.83;;;19.60;98.60;;;;;;4195268;28;20143;-57
2023/10/07 10:04:00;;;;;;;5.18;2.85;;;19.60;98.40;;;;;;4195752;28;20082;-64
2023/10/07 10:06:33;;;;;;;3.83;2.30;;;19.60;97.70;;;;;;4195242;28;20479;-59
2023/10/07 10:08:44;;;;;;;5.45;2.13;;;19.60;98.00;;;;;;4196703;28;20052;-56
2023/10/07 10:10:49;;;;;;;4.00;2.03;;;19.80;98.30;;;;;;4195038;28;20040;-58
2023/10/07 10:13:06;;;;;;;3.88;1.88;;;19.90;98.30;;;;;;4195953;28;20138;-59
2023/10/07 10:17:32;;;;;;;4.55;2.30;;;20.10;97.30;;;;;;4195752;28;20127;-58
2023/10/07 10:19:47;;;;;;;9.40;2.80;;;20.20;97.20;;;;;;4194901;28;20067;-59
2023/10/07 10:21:50;;;;;;;5.20;2.03;;;20.20;97.60;;;;;;4195567;28;20087;-58
2023/10/07 10:23:51;;;;;;;5.57;1.65;;;20.20;97.50;;;;;;4194393;28;20040;-58
2023/10/07 10:25:53;;;;;;;3.60;2.17;;;20.10;97.40;;;;;;4195842;28;20048;-58
2023/10/07 10:28:03;;;;;;;7.20;2.10;;;20.20;97.30;;;;;;4192982;28;20136;-58
2023/10/07 10:30:10;;;;;;;2.60;1.52;;;20.10;97.10;;;;;;4195060;28;20036;-59
2023/10/07 10:32:16;;;;;;;4.63;1.80;;;20.20;97.20;;;;;;4194378;28;20469;-58
2023/10/07 10:34:20;;;;;;;3.58;1.77;;;20.40;97.20;;;;;;4192821;28;20167;-59
2023/10/07 10:36:21;;;;;;;4.63;1.80;;;20.60;96.90;;;;;;4193984;28;20029;-60
2023/10/07 10:38:45;;;;;;;3.67;1.77;;;20.70;96.20;;;;;;4195400;28;20024;-61
2023/10/07 10:40:46;;;;;;;4.35;1.80;;;20.80;95.90;;;;;;4194983;28;20121;-60
2023/10/07 10:42:48;;;;;;;5.97;1.90;;;20.60;95.50;;;;;;4195302;28;20467;-59
2023/10/07 10:44:52;;;;;;;3.90;1.33;;;20.30;94.90;;;;;;4194362;28;20036;-58
2023/10/07 10:46:54;;;;;;;3.15;2.10;;;20.00;94.80;;;;;;4194934;28;20569;-60
2023/10/07 10:48:55;;;;;;;3.63;1.48;;;20.00;95.10;;;;;;4194085;28;20447;-58
2023/10/07 10:50:56;;;;;;;3.00;1.75;;;20.10;94.90;;;;;;4195250;28;20037;-60
2023/10/07 10:53:00;;;;;;;2.67;1.50;;;20.30;94.90;;;;;;4194283;28;20064;-59
2023/10/07 10:55:02;;;;;;;2.55;1.42;;;20.50;94.70;;;;;;4194898;28;20040;-59
2023/10/07 10:57:07;;;;;;;3.92;1.98;;;20.60;94.60;;;;;;4194677;28;20078;-60
2023/10/07 10:59:08;;;;;;;3.13;1.70;;;20.80;94.60;;;;;;4194210;28;20044;-57
2023/10/07 11:01:11;;;;;;;3.78;1.48;;;20.90;94.20;;;;;;4195175;28;20109;-59
2023/10/07 11:03:17;;;;;;;3.58;1.30;;;21.00;94.00;;;;;;4194152;28;20358;-60
2023/10/07 11:05:20;;;;;;;3.75;1.75;;;21.00;93.70;;;;;;4195067;28;20036;-61
2023/10/07 11:07:25;;;;;;;4.07;1.95;;;21.10;93.70;;;;;;4190377;28;20032;-58
2023/10/07 11:09:33;;;;;;;2.75;1.58;;;21.20;93.40;;;;;;4195245;28;20040;-58
2023/10/07 11:11:36;;;;;;;4.88;2.03;;;21.20;93.30;;;;;;4193972;28;20487;-58
2023/10/07 11:13:39;;;;;;;3.33;1.67;;;21.10;93.20;;;;;;4194923;28;20568;-57
2023/10/07 11:15:41;;;;;;;3.65;1.65;;;21.10;93.10;;;;;;4193883;28;20060;-58
2023/10/07 11:17:53;;;;;;;5.15;1.42;;;21.10;93.00;;;;;;4194865;28;20116;-58
2023/10/07 11:19:54;;;;;;;3.47;1.48;;;21.20;92.70;;;;;;4194183;28;20427;-60
2023/10/07 11:21:57;;;;;;;5.40;1.70;;;21.20;93.00;;;;;;4194586;28;20036;-59
2023/10/07 11:24:00;;;;;;;1.40;1.13;;;21.20;93.10;;;;;;4193409;28;20074;-61
2023/10/07 11:26:03;;;;;;;5.75;1.48;;;21.30;93.00;;;;;;4193444;28;20086;-60
2023/10/07 11:28:09;;;;;;;1.67;1.20;;;21.40;92.90;;;;;;4181454;28;20103;-57
2023/10/07 11:30:17;;;;;;;1.75;1.20;;;21.40;92.80;;;;;;4178708;28;20437;-58
2023/10/07 11:32:29;;;;;;;1.88;1.02;;;21.40;92.70;;;;;;4186649;28;20448;-60